Time;durP1;ratioP1;P1;durP2;ratioP2;P2;SDS_P1;SDS_P2;PMS_P1;PMS_P2;Temp;Humidity;BMP_temperature;BMP_pressure;BME280_temperature;BME280_humidity;BME280_pressure;Samples;Min_cycle;Max_cycle;Signal;HPM_P1;HPM_P2
2023/08/11 00:02:07;;;;;;;10.32;6.70;;;;;;;15.83;nan;100927.75;5015114;28;20017;-70
2023/08/11 00:04:33;;;;;;;9.10;6.18;;;;;;;16.05;nan;100962.28;5014500;28;20460;-70
2023/08/11 00:06:58;;;;;;;8.70;5.90;;;;;;;16.03;nan;100969.69;5012978;28;20044;-70
2023/08/11 00:09:26;;;;;;;12.10;6.20;;;;;;;15.94;nan;100957.88;5014186;28;20052;-71
2023/08/11 00:11:51;;;;;;;11.82;6.45;;;;;;;16.01;nan;100977.09;5005387;28;20092;-70
2023/08/11 00:14:17;;;;;;;15.07;6.50;;;;;;;15.92;nan;100954.66;5016366;28;20029;-70
2023/08/11 00:16:42;;;;;;;12.90;6.60;;;;;;;15.98;nan;100968.81;5012895;28;20076;-70
2023/08/11 00:19:08;;;;;;;13.55;7.30;;;;;;;15.88;nan;100969.50;5016782;28;20846;-70
2023/08/11 00:21:33;;;;;;;11.68;7.20;;;;;;;15.78;nan;100959.56;5019859;28;20056;-70
2023/08/11 00:23:58;;;;;;;11.32;6.82;;;;;;;15.73;nan;100962.94;5051031;28;20140;-70
2023/08/11 00:26:24;;;;;;;11.38;7.38;;;;;;;15.65;nan;100952.69;5029484;28;20093;-71
2023/08/11 00:28:50;;;;;;;74.25;23.60;;;;;;;15.91;nan;100977.75;5023127;28;20025;-72
2023/08/11 00:31:16;;;;;;;8.77;6.45;;;;;;;15.96;nan;100966.41;5019604;28;20061;-72
2023/08/11 00:33:46;;;;;;;10.40;6.30;;;;;;;15.83;nan;100964.13;5017846;28;20037;-71
2023/08/11 00:36:13;;;;;;;9.45;6.40;;;;;;;15.74;nan;100963.72;5019308;28;20114;-69
2023/08/11 00:38:39;;;;;;;11.80;6.40;;;;;;;15.78;nan;100962.19;5026263;28;20075;-68
2023/08/11 00:41:06;;;;;;;11.95;7.00;;;;;;;15.77;nan;100967.75;5027176;28;20101;-69
2023/08/11 00:43:31;;;;;;;13.55;6.25;;;;;;;15.76;nan;100969.59;5037433;28;20060;-68
2023/08/11 00:45:59;;;;;;;11.90;6.60;;;;;;;15.72;nan;100984.41;5035619;28;20026;-69
2023/08/11 00:48:25;;;;;;;9.55;6.22;;;;;;;15.63;nan;100980.53;5037517;28;20030;-67
2023/08/11 00:50:56;;;;;;;11.02;6.25;;;;;;;15.60;nan;100986.34;5036644;28;20022;-70
2023/08/11 00:53:22;;;;;;;11.32;6.35;;;;;;;15.49;nan;100974.75;5037179;28;20030;-70
2023/08/11 00:55:47;;;;;;;9.45;6.75;;;;;;;15.45;nan;100974.44;5036185;28;20030;-71
2023/08/11 00:58:13;;;;;;;13.50;6.43;;;;;;;15.42;nan;100974.13;5027691;28;20025;-70
2023/08/11 01:00:39;;;;;;;10.73;6.60;;;;;;;15.29;nan;100957.47;5023721;28;20030;-69
2023/08/11 01:03:04;;;;;;;11.45;6.32;;;;;;;15.22;nan;100964.00;5017713;28;20045;-69
2023/08/11 01:05:38;;;;;;;13.13;6.70;;;;;;;15.24;nan;100968.03;5018973;28;20026;-70
2023/08/11 01:08:06;;;;;;;9.90;6.18;;;;;;;15.12;nan;100962.00;5021726;28;20034;-70
2023/08/11 01:10:46;;;;;;;8.53;6.13;;;;;;;15.13;nan;100978.72;5016187;28;20030;-70
2023/08/11 01:13:19;;;;;;;12.07;6.28;;;;;;;15.07;nan;100981.28;5015874;28;20040;-70
2023/08/11 01:15:55;;;;;;;9.63;6.50;;;;;;;15.00;nan;100972.69;5017334;28;20056;-70
2023/08/11 01:18:22;;;;;;;12.70;6.80;;;;;;;14.81;nan;100953.53;5016308;28;20438;-71
2023/08/11 01:20:53;;;;;;;9.70;6.53;;;;;;;14.97;nan;100978.47;5016512;28;20116;-71
2023/08/11 01:23:20;;;;;;;10.45;6.55;;;;;;;14.86;nan;100955.47;5016921;28;20067;-71
2023/08/11 01:25:47;;;;;;;10.73;6.97;;;;;;;14.80;nan;100967.84;5017814;28;20033;-71
2023/08/11 01:28:13;;;;;;;10.05;6.78;;;;;;;14.82;nan;100975.53;5016668;28;20609;-72
2023/08/11 01:30:39;;;;;;;10.32;7.13;;;;;;;14.75;nan;100969.59;5015932;28;20116;-70
2023/08/11 01:33:05;;;;;;;10.57;7.00;;;;;;;14.71;nan;100984.38;5016515;28;20475;-65
2023/08/11 01:35:30;;;;;;;11.68;7.20;;;;;;;14.71;nan;100976.44;5014825;28;20087;-72
2023/08/11 01:37:56;;;;;;;13.98;6.78;;;;;;;14.65;nan;100971.03;5020481;28;20021;-72
2023/08/11 01:40:22;;;;;;;12.10;7.13;;;;;;;14.65;nan;100975.50;5016649;28;20033;-72
2023/08/11 01:42:47;;;;;;;9.82;7.10;;;;;;;14.64;nan;100982.66;5016729;28;20033;-72
2023/08/11 01:45:15;;;;;;;9.65;7.10;;;;;;;14.60;nan;100989.47;5015844;28;20241;-72
2023/08/11 01:47:44;;;;;;;9.95;7.10;;;;;;;14.61;nan;100988.44;5015803;28;20524;-72
2023/08/11 01:50:11;;;;;;;12.88;7.50;;;;;;;14.58;nan;100980.16;5016105;28;20036;-65
2023/08/11 01:52:42;;;;;;;13.70;7.38;;;;;;;14.58;nan;100980.97;5019262;28;20080;-72
2023/08/11 01:55:10;;;;;;;10.77;6.82;;;;;;;14.53;nan;100974.72;5046250;28;20041;-71
2023/08/11 01:57:37;;;;;;;12.27;6.78;;;;;;;14.47;nan;100973.84;5018519;28;20018;-65
2023/08/11 02:00:07;;;;;;;10.45;7.20;;;;;;;14.38;nan;100967.31;5014462;28;20018;-71
2023/08/11 02:02:33;;;;;;;13.35;6.93;;;;;;;14.35;nan;100965.13;5011535;28;20480;-71
2023/08/11 02:04:58;;;;;;;12.20;7.13;;;;;;;14.40;nan;100981.94;5016827;28;20064;-65
2023/08/11 02:07:24;;;;;;;11.65;7.22;;;;;;;14.16;nan;100932.72;5013813;28;20650;-71
2023/08/11 02:09:50;;;;;;;17.73;7.22;;;;;;;14.41;nan;100978.25;5015282;28;20045;-71
2023/08/11 02:12:15;;;;;;;11.73;6.78;;;;;;;14.45;nan;100981.22;5015638;28;20109;-66
2023/08/11 02:14:41;;;;;;;8.85;6.60;;;;;;;14.44;nan;100975.13;5014900;28;20438;-70
2023/08/11 02:17:06;;;;;;;10.27;7.15;;;;;;;14.42;nan;100969.25;5013853;28;20682;-70
2023/08/11 02:19:32;;;;;;;10.82;7.18;;;;;;;14.33;nan;100953.97;5013875;28;20033;-65
2023/08/11 02:21:57;;;;;;;15.15;6.97;;;;;;;14.40;nan;100967.88;5017067;28;20124;-69
2023/08/11 02:24:23;;;;;;;9.35;6.63;;;;;;;14.45;nan;100979.38;5015680;28;20565;-71
2023/08/11 02:26:48;;;;;;;7.82;5.75;;;;;;;14.39;nan;100961.78;5016470;28;20086;-71
2023/08/11 02:29:13;;;;;;;9.57;6.85;;;;;;;14.49;nan;100976.25;5014173;28;20040;-71
2023/08/11 02:31:39;;;;;;;9.88;6.38;;;;;;;14.45;nan;100967.97;5016344;28;20025;-68
2023/08/11 02:34:04;;;;;;;10.00;7.13;;;;;;;14.37;nan;100958.56;5016882;28;20493;-70
2023/08/11 02:36:30;;;;;;;10.27;6.88;;;;;;;14.36;nan;100961.44;5013560;28;20076;-70
2023/08/11 02:38:55;;;;;;;12.98;7.05;;;;;;;14.25;nan;100965.75;5014922;28;20084;-70
2023/08/11 02:41:21;;;;;;;12.27;7.20;;;;;;;14.09;nan;100953.22;5015911;28;20488;-69
2023/08/11 02:43:46;;;;;;;10.85;6.55;;;;;;;14.14;nan;100970.03;5022476;28;20018;-70
2023/08/11 02:46:12;;;;;;;9.77;6.82;;;;;;;14.18;nan;100971.16;5019819;28;20079;-70
2023/08/11 02:48:40;;;;;;;8.35;5.85;;;;;;;14.20;nan;100968.28;5015983;28;20498;-70
2023/08/11 02:51:05;;;;;;;8.82;6.10;;;;;;;14.09;nan;100951.38;5014429;28;20380;-69
2023/08/11 02:53:31;;;;;;;9.40;5.95;;;;;;;14.18;nan;100957.94;5013050;28;20038;-69
2023/08/11 02:56:06;;;;;;;11.63;5.97;;;;;;;14.28;nan;100972.41;5014222;28;20665;-70
2023/08/11 02:58:32;;;;;;;8.52;5.55;;;;;;;14.31;nan;100978.03;5014662;28;20633;-70
2023/08/11 03:00:57;;;;;;;8.25;5.45;;;;;;;14.21;nan;100964.59;5015784;28;20044;-71
2023/08/11 03:03:23;;;;;;;9.48;5.07;;;;;;;14.24;nan;100972.06;5016019;28;20017;-70
2023/08/11 03:05:48;;;;;;;8.55;5.78;;;;;;;14.15;nan;100966.34;5013478;28;20459;-69
2023/08/11 03:08:14;;;;;;;12.23;6.20;;;;;;;14.06;nan;100970.41;5012815;28;20045;-70
2023/08/11 03:10:39;;;;;;;9.35;5.85;;;;;;;13.98;nan;100973.38;5010845;28;20038;-70
2023/08/11 03:13:04;;;;;;;10.85;6.45;;;;;;;14.00;nan;100971.31;5013995;28;20113;-70
2023/08/11 03:15:30;;;;;;;11.23;6.72;;;;;;;14.09;nan;100993.75;5014849;28;20033;-70
2023/08/11 03:17:56;;;;;;;12.13;6.20;;;;;;;14.04;nan;100981.22;5014713;28;20524;-70
2023/08/11 03:20:23;;;;;;;9.57;6.32;;;;;;;13.88;nan;100981.13;5015153;28;20033;-69
2023/08/11 03:22:48;;;;;;;9.93;5.63;;;;;;;13.85;nan;100973.66;5013427;28;20703;-70
2023/08/11 03:25:14;;;;;;;9.65;6.78;;;;;;;13.97;nan;100987.69;5014138;28;20033;-70
2023/08/11 03:27:41;;;;;;;10.30;6.13;;;;;;;14.02;nan;100991.22;5012297;28;20030;-70
2023/08/11 03:30:10;;;;;;;9.95;6.05;;;;;;;14.06;nan;100996.06;5014465;28;20064;-69
2023/08/11 03:32:38;;;;;;;11.98;5.70;;;;;;;14.06;nan;100991.59;5011397;28;20120;-70
2023/08/11 03:35:04;;;;;;;9.98;5.78;;;;;;;14.07;nan;100989.72;5014315;28;20101;-69
2023/08/11 03:37:30;;;;;;;8.75;5.30;;;;;;;14.07;nan;100993.19;5014592;28;20021;-69
2023/08/11 03:39:55;;;;;;;9.80;5.13;;;;;;;14.11;nan;100993.53;5018189;28;20041;-70
2023/08/11 03:42:22;;;;;;;6.43;5.00;;;;;;;14.01;nan;100980.88;5014495;28;20472;-68
2023/08/11 03:44:47;;;;;;;9.82;5.78;;;;;;;14.10;nan;100997.19;5014457;28;20107;-69
2023/08/11 03:47:13;;;;;;;7.68;5.88;;;;;;;14.06;nan;100994.22;5015051;28;20029;-69
2023/08/11 03:49:38;;;;;;;9.32;5.95;;;;;;;14.06;nan;100999.53;5011842;28;20038;-70
2023/08/11 03:52:04;;;;;;;7.65;5.57;;;;;;;13.99;nan;100983.75;5014533;28;20053;-69
2023/08/11 03:54:29;;;;;;;8.10;5.30;;;;;;;13.83;nan;100952.69;5016440;28;20033;-69
2023/08/11 03:56:54;;;;;;;7.38;5.85;;;;;;;13.99;nan;100982.97;5020780;28;20633;-69
2023/08/11 03:59:20;;;;;;;9.88;6.03;;;;;;;14.11;nan;100993.53;5018990;28;20045;-70
2023/08/11 04:01:45;;;;;;;8.27;5.95;;;;;;;14.07;nan;100990.53;5019328;28;20141;-69
2023/08/11 04:04:10;;;;;;;7.97;5.65;;;;;;;14.08;nan;100991.34;5017955;28;20084;-70
2023/08/11 04:06:36;;;;;;;9.32;5.78;;;;;;;14.05;nan;101000.53;5016700;28;20607;-70
2023/08/11 04:09:02;;;;;;;9.77;5.55;;;;;;;14.02;nan;101001.03;5018140;28;20021;-71
2023/08/11 04:11:28;;;;;;;12.45;5.95;;;;;;;14.05;nan;101016.44;5020623;28;20026;-69
2023/08/11 04:13:53;;;;;;;10.50;6.18;;;;;;;13.98;nan;100992.75;5018006;28;20080;-70
2023/08/11 04:16:19;;;;;;;12.18;7.05;;;;;;;14.06;nan;101004.81;5019699;28;20480;-69
2023/08/11 04:18:44;;;;;;;10.80;5.97;;;;;;;14.08;nan;101010.69;5017702;28;20079;-69
2023/08/11 04:21:10;;;;;;;7.50;5.20;;;;;;;14.02;nan;101003.66;5015997;28;20029;-69
2023/08/11 04:23:35;;;;;;;7.05;5.22;;;;;;;14.10;nan;101018.38;5013685;28;20051;-69
2023/08/11 04:26:00;;;;;;;9.32;5.72;;;;;;;14.03;nan;101013.22;5018202;28;20084;-69
2023/08/11 04:28:26;;;;;;;6.30;4.78;;;;;;;14.08;nan;101016.00;5000567;28;20029;-69
2023/08/11 04:30:51;;;;;;;11.32;5.38;;;;;;;14.11;nan;101023.47;5016327;28;20132;-70
2023/08/11 04:33:18;;;;;;;6.13;4.97;;;;;;;14.10;nan;101021.03;5019306;28;20056;-71
2023/08/11 04:35:43;;;;;;;8.77;4.93;;;;;;;14.15;nan;101029.91;5020995;28;20022;-71
2023/08/11 04:38:09;;;;;;;10.38;5.47;;;;;;;14.12;nan;101025.06;5022454;28;20057;-70
2023/08/11 04:40:34;;;;;;;9.50;4.90;;;;;;;14.19;nan;101031.03;5016631;28;20427;-71
2023/08/11 04:43:00;;;;;;;9.55;5.07;;;;;;;14.14;nan;101027.50;5016775;28;20499;-71
2023/08/11 04:45:28;;;;;;;17.20;5.40;;;;;;;14.23;nan;101037.50;5033457;28;20034;-71
2023/08/11 04:47:54;;;;;;;10.18;5.38;;;;;;;14.22;nan;101032.41;5039996;28;20052;-72
2023/08/11 04:50:19;;;;;;;12.65;5.93;;;;;;;14.24;nan;101038.28;5047233;28;20021;-70
2023/08/11 04:52:45;;;;;;;17.50;6.10;;;;;;;13.98;nan;101010.47;5041114;28;20026;-72
2023/08/11 04:55:10;;;;;;;10.45;5.78;;;;;;;14.31;nan;101046.13;5040815;28;20326;-69
2023/08/11 04:57:36;;;;;;;9.40;6.63;;;;;;;14.22;nan;101043.84;5034494;28;20512;-68
2023/08/11 05:00:02;;;;;;;8.93;6.65;;;;;;;14.40;nan;101055.31;5024974;28;20442;-70
2023/08/11 05:02:27;;;;;;;12.43;7.60;;;;;;;14.44;nan;101056.47;5019112;28;20056;-70
2023/08/11 05:04:53;;;;;;;12.43;6.28;;;;;;;14.37;nan;101038.03;5017648;28;20575;-70
2023/08/11 05:07:18;;;;;;;14.30;6.93;;;;;;;14.53;nan;101051.59;5019701;28;20080;-68
2023/08/11 05:09:44;;;;;;;8.75;6.10;;;;;;;14.63;nan;101059.78;5017023;28;20052;-69
2023/08/11 05:12:12;;;;;;;10.55;5.82;;;;;;;14.64;nan;101054.22;5018954;28;20037;-70
2023/08/11 05:14:37;;;;;;;10.02;5.95;;;;;;;14.70;nan;101057.81;5017875;28;20106;-71
2023/08/11 05:17:03;;;;;;;12.98;7.45;;;;;;;14.81;nan;101061.44;5017830;28;20104;-71
2023/08/11 05:19:29;;;;;;;15.70;7.70;;;;;;;14.85;nan;101054.63;5018435;28;20030;-69
2023/08/11 05:21:54;;;;;;;13.55;8.73;;;;;;;14.85;nan;101044.03;5016916;28;20394;-68
2023/08/11 05:24:19;;;;;;;16.05;8.35;;;;;;;14.89;nan;101048.63;5016869;28;20041;-68
2023/08/11 05:26:45;;;;;;;16.63;8.43;;;;;;;14.94;nan;101049.72;5017339;28;20113;-70
2023/08/11 05:29:10;;;;;;;14.00;8.73;;;;;;;15.10;nan;101062.22;5019352;28;20071;-70
2023/08/11 05:31:36;;;;;;;13.85;7.50;;;;;;;15.11;nan;101055.91;5018657;28;20036;-71
2023/08/11 05:34:01;;;;;;;14.85;7.57;;;;;;;15.20;nan;101056.28;5017335;28;20472;-72
2023/08/11 05:36:27;;;;;;;11.73;7.38;;;;;;;15.19;nan;101044.88;5015363;28;20502;-70
2023/08/11 05:38:52;;;;;;;13.98;7.78;;;;;;;15.47;nan;101081.19;5014820;28;20076;-70
2023/08/11 05:41:18;;;;;;;10.65;6.93;;;;;;;15.33;nan;101056.00;5017557;28;20111;-71
2023/08/11 05:43:43;;;;;;;11.23;6.45;;;;;;;15.40;nan;101055.84;5017987;28;20057;-71
2023/08/11 05:46:09;;;;;;;12.18;6.60;;;;;;;15.55;nan;101063.25;5016501;28;20457;-71
2023/08/11 05:48:35;;;;;;;12.00;7.18;;;;;;;15.50;nan;101051.50;5015788;28;20037;-70
2023/08/11 05:51:05;;;;;;;11.68;6.80;;;;;;;15.66;nan;101062.38;5019089;28;20151;-69
2023/08/11 05:53:30;;;;;;;9.77;6.80;;;;;;;15.77;nan;101047.41;5015405;28;20484;-69
2023/08/11 05:55:56;;;;;;;16.08;6.75;;;;;;;15.83;nan;101051.75;5013303;28;20037;-69
2023/08/11 05:58:22;;;;;;;10.70;6.70;;;;;;;15.74;nan;101027.47;5018971;28;20053;-70
2023/08/11 06:00:48;;;;;;;14.40;6.22;;;;;;;16.07;nan;101060.31;5011351;28;20080;-69
2023/08/11 06:03:14;;;;;;;13.55;6.68;;;;;;;16.38;nan;101091.56;5013083;28;20036;-69
2023/08/11 06:05:42;;;;;;;11.35;6.38;;;;;;;16.17;nan;101050.63;5015371;28;20059;-71
2023/08/11 06:08:09;;;;;;;13.68;6.97;;;;;;;16.24;nan;101055.78;5018069;28;20088;-69
2023/08/11 06:10:38;;;;;;;14.10;6.65;;;;;;;16.39;nan;101057.81;5015473;28;20898;-70
2023/08/11 06:13:03;;;;;;;13.83;6.30;;;;;;;16.46;nan;101069.06;5014655;28;20037;-69
2023/08/11 06:15:30;;;;;;;10.65;6.68;;;;;;;16.55;nan;101072.09;5012082;28;20026;-68
2023/08/11 06:17:55;;;;;;;8.52;6.70;;;;;;;16.60;nan;101069.50;5014530;28;20139;-68
2023/08/11 06:20:21;;;;;;;15.45;7.03;;;;;;;16.68;nan;101074.34;5020951;28;20668;-69
2023/08/11 06:22:48;;;;;;;15.50;7.18;;;;;;;16.55;nan;101034.88;5017310;28;20041;-66
2023/08/11 06:25:16;;;;;;;16.42;7.40;;;;;;;16.83;nan;101067.63;5015722;28;20025;-67
2023/08/11 06:27:43;;;;;;;13.85;7.47;;;;;;;16.80;nan;101040.47;5017261;28;20026;-67
2023/08/11 06:30:09;;;;;;;12.55;6.97;;;;;;;17.11;nan;101077.22;5017503;28;20040;-66
2023/08/11 06:32:35;;;;;;;10.05;6.30;;;;;;;17.26;nan;101082.69;5015143;28;20022;-66
2023/08/11 06:35:01;;;;;;;10.10;6.75;;;;;;;17.32;nan;101081.69;5014773;28;20021;-67
2023/08/11 06:37:27;;;;;;;15.43;6.60;;;;;;;17.37;nan;101088.91;5015694;28;20032;-66
2023/08/11 06:39:54;;;;;;;15.73;6.88;;;;;;;17.60;nan;101117.09;5015425;28;20026;-66
2023/08/11 06:42:20;;;;;;;12.40;7.30;;;;;;;17.22;nan;101055.78;5015804;28;20033;-66
2023/08/11 06:44:45;;;;;;;12.68;7.45;;;;;;;17.51;nan;101090.09;5012809;28;20017;-68
2023/08/11 06:47:10;;;;;;;11.38;7.40;;;;;;;17.48;nan;101090.63;5016039;28;20040;-68
2023/08/11 06:49:36;;;;;;;11.38;7.35;;;;;;;17.51;nan;101090.09;5015009;28;20018;-69
2023/08/11 06:52:01;;;;;;;11.95;7.00;;;;;;;17.61;nan;101100.84;5012627;28;20084;-69
2023/08/11 06:54:26;;;;;;;11.90;7.18;;;;;;;17.67;nan;101096.38;5015058;28;20053;-67
2023/08/11 06:56:52;;;;;;;11.35;6.97;;;;;;;17.76;nan;101107.34;5013815;28;20029;-67
2023/08/11 06:59:17;;;;;;;14.48;8.30;;;;;;;17.81;nan;101094.91;5015945;28;20034;-68
2023/08/11 07:01:42;;;;;;;14.23;6.63;;;;;;;17.89;nan;101093.63;5017646;28;20022;-68
2023/08/11 07:04:08;;;;;;;10.90;6.35;;;;;;;17.91;nan;101088.00;5015872;28;21028;-68
2023/08/11 07:06:33;;;;;;;10.40;6.20;;;;;;;18.09;nan;101111.59;5016209;28;20037;-68
2023/08/11 07:08:59;;;;;;;9.30;6.50;;;;;;;18.09;nan;101113.44;5016284;28;20032;-65
2023/08/11 07:11:24;;;;;;;10.30;6.50;;;;;;;18.23;nan;101118.06;5013410;28;20053;-67
2023/08/11 07:13:49;;;;;;;14.25;6.68;;;;;;;18.23;nan;101110.06;5015914;28;20028;-65
2023/08/11 07:16:15;;;;;;;10.18;6.50;;;;;;;18.38;nan;101117.34;5010722;28;20035;-66
2023/08/11 07:18:40;;;;;;;11.25;6.50;;;;;;;18.43;nan;101111.22;5019180;28;20032;-65
2023/08/11 07:21:05;;;;;;;9.48;6.07;;;;;;;18.54;nan;101112.88;5016789;28;20026;-67
2023/08/11 07:23:32;;;;;;;8.98;5.95;;;;;;;18.70;nan;101119.88;5014213;28;20413;-67
2023/08/11 07:25:57;;;;;;;9.68;5.65;;;;;;;18.82;nan;101125.03;5013413;28;20037;-67
2023/08/11 07:28:23;;;;;;;12.05;6.10;;;;;;;18.96;nan;101122.66;5013757;28;20026;-67
2023/08/11 07:30:48;;;;;;;11.13;5.95;;;;;;;19.10;nan;101122.94;5015442;28;20396;-68
2023/08/11 07:33:14;;;;;;;8.48;6.20;;;;;;;19.29;nan;101129.38;5017397;28;20041;-68
2023/08/11 07:35:39;;;;;;;12.57;6.05;;;;;;;19.52;nan;101130.75;5021152;28;20030;-68
2023/08/11 07:38:05;;;;;;;7.60;5.38;;;;;;;19.52;nan;101121.94;5015680;28;20021;-68
2023/08/11 07:40:30;;;;;;;10.50;5.32;;;;;;;19.52;nan;101111.25;5017094;28;20107;-68
2023/08/11 07:42:56;;;;;;;11.20;6.13;;;;;;;19.52;nan;101105.91;5013857;28;20469;-67
2023/08/11 07:45:21;;;;;;;15.93;6.88;;;;;;;19.64;nan;101119.00;5015524;28;20049;-65
2023/08/11 07:47:47;;;;;;;11.50;6.53;;;;;;;19.68;nan;101118.25;5013141;28;20025;-66
2023/08/11 07:50:12;;;;;;;9.45;6.10;;;;;;;19.71;nan;101114.22;5015186;28;20148;-67
2023/08/11 07:52:37;;;;;;;15.05;5.63;;;;;;;19.80;nan;101119.81;5015842;28;20562;-68
2023/08/11 07:55:04;;;;;;;13.27;5.55;;;;;;;19.89;nan;101120.88;5013964;28;20447;-66
2023/08/11 07:57:29;;;;;;;11.45;5.53;;;;;;;20.01;nan;101129.41;5017635;28;20036;-66
2023/08/11 07:59:57;;;;;;;7.70;5.20;;;;;;;20.09;nan;101125.41;5010746;28;20025;-67
2023/08/11 08:02:22;;;;;;;14.77;5.25;;;;;;;20.11;nan;101113.38;5023252;28;20045;-65
2023/08/11 08:04:47;;;;;;;9.68;4.70;;;;;;;20.25;nan;101123.47;5011817;28;20822;-67
2023/08/11 08:07:13;;;;;;;8.60;4.38;;;;;;;20.35;nan;101120.75;5015744;28;20105;-67
2023/08/11 08:09:38;;;;;;;10.38;4.35;;;;;;;20.45;nan;101122.59;5012906;28;20025;-67
2023/08/11 08:12:04;;;;;;;11.40;3.83;;;;;;;20.57;nan;101125.81;5047088;28;20797;-68
2023/08/11 08:14:30;;;;;;;7.40;4.30;;;;;;;20.58;nan;101112.16;5015378;28;20439;-66
2023/08/11 08:16:56;;;;;;;11.15;4.40;;;;;;;20.76;nan;101128.69;5015786;28;20025;-66
2023/08/11 08:19:22;;;;;;;9.52;4.05;;;;;;;20.89;nan;101124.59;5021172;28;20026;-67
2023/08/11 08:21:47;;;;;;;5.60;3.67;;;;;;;20.95;nan;101118.94;5012831;28;20029;-67
2023/08/11 08:24:16;;;;;;;8.57;3.22;;;;;;;21.10;nan;101123.41;5013995;28;20042;-69
2023/08/11 08:26:43;;;;;;;;;;;;;;;21.22;nan;101120.38;5015940;28;20039;-69
2023/08/11 08:29:09;;;;;;;10.07;2.90;;;;;;;21.54;nan;101119.88;5013009;28;19921;-68
2023/08/11 08:31:35;;;;;;;4.00;2.67;;;;;;;21.64;nan;101122.50;5018876;28;20038;-67
2023/08/11 08:34:00;;;;;;;4.45;2.67;;;;;;;21.69;nan;101124.31;5012611;28;20033;-68
2023/08/11 08:36:26;;;;;;;9.77;2.67;;;;;;;21.74;nan;101120.78;5015027;28;20037;-66
2023/08/11 08:38:51;;;;;;;4.38;2.42;;;;;;;21.75;nan;101114.34;5015152;28;20561;-68
2023/08/11 08:41:23;;;;;;;2.80;2.30;;;;;;;21.91;nan;101125.72;5018623;28;20145;-68
2023/08/11 08:43:53;;;;;;;2.78;1.98;;;;;;;21.96;nan;101121.13;5024997;28;20030;-68
2023/08/11 08:46:20;;;;;;;6.30;2.40;;;;;;;22.08;nan;101123.41;5019023;28;20037;-68
2023/08/11 08:49:19;;;;;;;5.53;2.30;;;;;;;22.13;nan;101123.34;5017133;28;20049;-68
2023/08/11 08:51:45;;;;;;;3.65;2.03;;;;;;;22.18;nan;101119.81;5017231;28;20081;-68
2023/08/11 08:54:11;;;;;;;3.05;2.20;;;;;;;21.92;nan;101071.03;5020225;28;20726;-69
2023/08/11 08:56:40;;;;;;;3.78;1.90;;;;;;;22.23;nan;101111.75;5016730;28;20021;-69
2023/08/11 08:59:07;;;;;;;3.28;2.08;;;;;;;22.30;nan;101118.34;5021863;28;20148;-69
2023/08/11 09:01:34;;;;;;;4.18;2.50;;;;;;;22.34;nan;101109.72;5021011;28;20041;-67
2023/08/11 09:04:00;;;;;;;4.05;2.75;;;;;;;22.40;nan;101111.28;5028461;28;20025;-69
2023/08/11 09:06:29;;;;;;;6.47;3.40;;;;;;;22.37;nan;101109.97;5031103;28;20054;-67
2023/08/11 09:08:54;;;;;;;5.20;2.47;;;;;;;22.52;nan;101117.81;5022814;28;20018;-68
2023/08/11 09:11:21;;;;;;;6.00;2.38;;;;;;;22.61;nan;101107.25;5022693;28;20827;-68
2023/08/11 09:13:47;;;;;;;4.00;2.80;;;;;;;22.66;nan;101109.88;5018966;28;20025;-69
2023/08/11 09:16:14;;;;;;;6.45;2.28;;;;;;;22.78;nan;101116.72;5018051;28;20033;-69
2023/08/11 09:18:40;;;;;;;7.93;2.13;;;;;;;22.75;nan;101095.78;5016529;28;20018;-68
2023/08/11 09:21:07;;;;;;;3.25;1.90;;;;;;;22.87;nan;101099.66;5018273;28;20038;-66
2023/08/11 09:23:33;;;;;;;3.85;1.90;;;;;;;23.00;nan;101114.25;5013800;28;20049;-67
2023/08/11 09:26:01;;;;;;;2.60;1.70;;;;;;;23.01;nan;101110.50;5019723;28;20040;-67
2023/08/11 09:28:26;;;;;;;3.40;1.42;;;;;;;23.11;nan;101110.34;5017301;28;20025;-67
2023/08/11 09:31:03;;;;;;;5.22;1.90;;;;;;;23.13;nan;101093.94;5016250;28;20037;-66
2023/08/11 09:33:30;;;;;;;1.65;1.40;;;;;;;23.16;nan;101093.34;5016135;28;20384;-68
2023/08/11 09:35:56;;;;;;;1.63;1.40;;;;;;;23.32;nan;101110.03;5017332;28;20062;-66
2023/08/11 09:38:28;;;;;;;1.77;1.52;;;;;;;23.34;nan;101107.84;5016032;28;20753;-67
2023/08/11 09:41:01;;;;;;;1.50;1.38;;;;;;;23.38;nan;101108.06;5025130;28;20464;-67
2023/08/11 09:43:32;;;;;;;3.33;1.80;;;;;;;23.50;nan;101106.50;5013718;28;20030;-67
2023/08/11 09:45:59;;;;;;;1.77;1.45;;;;;;;23.50;nan;101105.72;5019366;28;20030;-64
2023/08/11 09:48:27;;;;;;;1.67;1.20;;;;;;;23.53;nan;101105.13;5015085;28;20029;-66
2023/08/11 09:50:55;;;;;;;1.75;1.52;;;;;;;23.63;nan;101109.53;5016966;28;20030;-67
2023/08/11 09:53:22;;;;;;;2.58;1.60;;;;;;;23.70;nan;101099.16;5002327;28;20049;-64
2023/08/11 09:55:55;;;;;;;2.97;1.70;;;;;;;23.77;nan;101100.41;5016616;28;20573;-65
2023/08/11 09:58:26;;;;;;;1.42;1.23;;;;;;;23.83;nan;101103.03;5018762;28;20101;-68
2023/08/11 10:00:52;;;;;;;1.80;1.55;;;;;;;23.92;nan;101099.34;5016412;28;20025;-70
2023/08/11 10:03:28;;;;;;;3.47;1.20;;;;;;;23.91;nan;101089.66;5016459;28;20033;-69
2023/08/11 10:05:57;;;;;;;3.97;1.40;;;;;;;24.06;nan;101099.34;5019234;28;20029;-69
2023/08/11 10:08:24;;;;;;;1.95;1.50;;;;;;;23.98;nan;101095.47;5015078;28;20062;-69
2023/08/11 10:10:50;;;;;;;3.10;1.30;;;;;;;24.10;nan;101094.97;5018640;28;20022;-69
2023/08/11 10:13:21;;;;;;;2.30;1.50;;;;;;;24.29;nan;101105.63;5016308;28;20104;-69
2023/08/11 10:15:48;;;;;;;2.88;1.58;;;;;;;24.31;nan;101108.03;5016131;28;20030;-69
2023/08/11 10:18:15;;;;;;;2.47;1.15;;;;;;;24.38;nan;101103.03;5016582;28;20045;-69
2023/08/11 10:20:41;;;;;;;3.85;1.40;;;;;;;24.38;nan;101092.28;5013881;28;20021;-68
2023/08/11 10:23:09;;;;;;;3.60;1.40;;;;;;;24.50;nan;101092.59;5016979;28;20057;-69
2023/08/11 10:25:35;;;;;;;1.80;1.50;;;;;;;24.57;nan;101084.09;5014306;28;20037;-68
2023/08/11 10:28:06;;;;;;;2.17;1.45;;;;;;;24.64;nan;101089.88;5017769;28;20052;-68
2023/08/11 10:30:32;;;;;;;2.17;1.38;;;;;;;24.64;nan;101073.72;5016645;28;20407;-69
2023/08/11 10:33:06;;;;;;;4.50;1.50;;;;;;;24.67;nan;101061.53;5015604;28;20087;-69
2023/08/11 10:35:48;;;;;;;3.30;1.38;;;;;;;24.80;nan;101069.56;5020135;28;20830;-69
2023/08/11 10:38:29;;;;;;;1.70;1.45;;;;;;;24.84;nan;101073.22;5018632;28;20053;-69
2023/08/11 10:41:03;;;;;;;1.75;1.45;;;;;;;24.89;nan;101075.03;5014569;28;20028;-65
2023/08/11 10:43:42;;;;;;;3.30;1.55;;;;;;;24.90;nan;101065.84;5012890;28;20488;-65
2023/08/11 10:46:25;;;;;;;1.95;1.30;;;;;;;24.97;nan;101071.63;5017678;28;20150;-70
2023/08/11 10:48:53;;;;;;;1.73;1.33;;;;;;;25.07;nan;101065.19;5014432;28;20026;-70
2023/08/11 10:51:39;;;;;;;1.83;1.40;;;;;;;25.17;nan;101072.22;5015161;28;20040;-70
2023/08/11 10:54:11;;;;;;;2.53;1.30;;;;;;;25.24;nan;101067.22;5015504;28;20029;-71
2023/08/11 10:56:39;;;;;;;1.67;1.45;;;;;;;25.28;nan;101065.50;5014449;28;20404;-66
2023/08/11 10:59:05;;;;;;;3.30;1.20;;;;;;;25.35;nan;101068.53;5014903;28;20022;-68
2023/08/11 11:01:36;;;;;;;3.10;1.40;;;;;;;25.39;nan;101066.03;5015295;28;20017;-68
2023/08/11 11:04:03;;;;;;;4.55;1.20;;;;;;;25.46;nan;101069.09;5013591;28;20063;-67
2023/08/11 11:06:29;;;;;;;2.22;1.40;;;;;;;25.39;nan;101050.66;5014515;28;20021;-67
2023/08/11 11:08:55;;;;;;;1.40;1.20;;;;;;;25.46;nan;101063.69;5013525;28;20021;-67
2023/08/11 11:11:20;;;;;;;2.05;1.40;;;;;;;25.49;nan;101060.38;5012994;28;20017;-67
2023/08/11 11:13:45;;;;;;;3.25;1.45;;;;;;;25.59;nan;101059.31;5013664;28;20021;-66
2023/08/11 11:16:11;;;;;;;2.30;1.10;;;;;;;25.61;nan;101049.81;5016379;28;20052;-67
2023/08/11 11:18:37;;;;;;;2.50;1.40;;;;;;;25.56;nan;101044.56;5015844;28;20044;-66
2023/08/11 11:21:03;;;;;;;4.38;1.58;;;;;;;25.65;nan;101055.38;5016356;28;20056;-68
2023/08/11 11:23:28;;;;;;;1.50;1.27;;;;;;;25.67;nan;101053.97;5020050;28;20091;-67
2023/08/11 11:25:54;;;;;;;1.50;1.20;;;;;;;25.77;nan;101046.72;5015678;28;21130;-67
2023/08/11 11:28:20;;;;;;;3.40;1.55;;;;;;;25.66;nan;101033.47;5016241;28;20481;-67
2023/08/11 11:30:45;;;;;;;1.67;1.20;;;;;;;25.68;nan;101041.28;5015657;28;20018;-66
2023/08/11 11:33:14;;;;;;;1.80;1.38;;;;;;;25.76;nan;101031.63;5015095;28;20057;-67
2023/08/11 11:35:40;;;;;;;3.75;1.60;;;;;;;25.87;nan;101035.66;5018560;28;20045;-66
2023/08/11 11:38:06;;;;;;;4.75;1.60;;;;;;;25.94;nan;101037.91;5019347;28;20030;-66